Castlegar, British Columbia

9:58 AM PDT on August 28, 2014 (GMT -0700)
Castlegar | Change Station
CLOSE
Current Station
Airport
Location: Castlegar,
Elevation: 1624 ft
Nearby Weather Stations

Elev 1624 ft 49.30 °N, 117.63 °W | Updated 58 minutes ago

Mostly Cloudy
Mostly Cloudy
64 °F
Feels Like 64 °F
N
2
Wind Variable Wind from Variable

Today is forecast to be nearly the same temperature as yesterday.

Today
High -- | Low -- °F
--% Chance of Precip.
Yesterday
High -- | Low -- °F
Precip. -- in
6:01 AM 7:41 PM
Waxing Crescent, 9% visible
Pressure 29.93 in
Visibility 15.0 miles
Clouds Scattered Clouds 9000 ft
Scattered Clouds 16000 ft
Mostly Cloudy 27000 ft
Dew Point 59 °F
Humidity 83%
Rainfall 0.00 in
Snow Depth Not available.
UV 1 out of 12
Pollen Not available.
Air Quality Not available.
Flu Activity Not available.
METAR CYCG 281600Z VRB02KT 15SM SCT090 SCT160 BKN270 18/15 A2995 RMK AC3AC1CI3 SLP135 DENSITY ALT 2300FT

More Conditions Fewer Conditions

Pressure 29.93 in
Visibility 15.0 miles
Clouds Scattered Clouds 9000 ft
Scattered Clouds 16000 ft
Mostly Cloudy 27000 ft
Dew Point 59 °F
Humidity 83%
Rainfall 0.00 in
Snow Depth Not available.
UV 1 out of 12
Pollen Not available.
Air Quality Not available.
Flu Activity Not available.
METAR CYCG 281600Z VRB02KT 15SM SCT090 SCT160 BKN270 18/15 A2995 RMK AC3AC1CI3 SLP135 DENSITY ALT 2300FT

More Conditions Fewer Conditions

10-Day Weather Forecast

Almanac

Astronomy

Aug. 28, 2014 Rise Set
Actual Time 6:01 AM PDT 7:41 PM PDT
Civil Twilight 5:27 AM PDT 8:14 PM PDT
Nautical Twilight 4:46 AM PDT 8:55 PM PDT
Astronomical Twilight 4:00 AM PDT 9:40 PM PDT
Moon 9:17 AM PDT 8:46 PM PDT
Length of Visible Light 14h 47m
Length of Day
13h 40m
Tomorrow will be 3m 29s shorter.
Waxing Crescent, 9% of the Moon is Illuminated
Today
Waxing Crescent
Sep 2
First Quarter
Sep 8
Full
Sep 15
Last Quarter
Sep 24
New

Today's Extremes

Country Highs Country Lows

Community

WunderPhotos

Upload Photos

1,748,013 photos uploaded!

Nearby

Snow Depth

Not available.

Earthquake Activity

City Distance Mag. Time & Date
No recent earthquake activity has been reported nearby.
Minimum magnitude displayed is 2.5.

Coastal Water Temperatures

Place Temperature
No Stations Reporting

Nearby Weather Stations